Time;durP1;ratioP1;P1;durP2;ratioP2;P2;SDS_P1;SDS_P2;PMS_P1;PMS_P2;Temp;Humidity;BMP_temperature;BMP_pressure;BME280_temperature;BME280_humidity;BME280_pressure;Samples;Min_cycle;Max_cycle;Signal;HPM_P1;HPM_P2
2021/04/13 00:00:31;;;;;;;;;;;2.30;99.90;;;;;;5093012;28;19904;-77
2021/04/13 00:02:58;;;;;;;;;;;2.30;99.90;;;;;;5075230;28;19908;-77
2021/04/13 00:05:23;;;;;;;;;;;2.40;99.90;;;;;;5075768;28;19904;-77
2021/04/13 00:07:49;;;;;;;;;;;2.50;99.90;;;;;;5075790;28;19931;-77
2021/04/13 00:10:16;;;;;;;;;;;2.50;99.90;;;;;;5075791;28;20385;-77
2021/04/13 00:12:42;;;;;;;;;;;2.50;99.90;;;;;;5076210;28;20042;-77
2021/04/13 00:15:10;;;;;;;;;;;2.40;99.90;;;;;;5075287;28;20365;-76
2021/04/13 00:17:35;;;;;;;;;;;2.50;99.90;;;;;;5093846;28;20279;-77
2021/04/13 00:20:01;;;;;;;;;;;2.60;99.90;;;;;;5075127;28;19911;-77
2021/04/13 00:22:27;;;;;;;;;;;2.60;99.90;;;;;;5093771;28;19908;-77
2021/04/13 00:24:53;;;;;;;;;;;2.70;99.90;;;;;;5093380;28;19910;-77
2021/04/13 00:27:21;;;;;;;;;;;2.80;99.90;;;;;;5075788;28;19954;-77
2021/04/13 00:29:46;;;;;;;;;;;2.80;99.90;;;;;;5075736;28;20334;-77
2021/04/13 00:32:12;;;;;;;;;;;2.80;99.90;;;;;;5093856;28;19904;-77
2021/04/13 00:34:57;;;;;;;;;;;2.70;99.90;;;;;;5074709;28;19916;-77
2021/04/13 00:37:24;;;;;;;;;;;2.60;99.90;;;;;;5093860;28;19939;-77
2021/04/13 00:39:53;;;;;;;;;;;2.60;99.90;;;;;;5094057;28;20342;-78
2021/04/13 00:42:27;;;;;;;;;;;2.50;99.90;;;;;;5076182;28;19904;-78
2021/04/13 00:44:54;;;;;;;;;;;2.50;99.90;;;;;;5075432;28;19949;-76
2021/04/13 00:47:28;;;;;;;;;;;2.40;99.90;;;;;;5093552;28;19911;-77
2021/04/13 00:49:56;;;;;;;;;;;2.30;99.90;;;;;;5093339;28;20044;-77
2021/04/13 00:52:30;;;;;;;;;;;2.30;99.90;;;;;;5075705;28;19958;-77
2021/04/13 00:54:58;;;;;;;;;;;2.30;99.90;;;;;;5075321;28;19915;-77
2021/04/13 00:57:25;;;;;;;;;;;2.40;99.90;;;;;;5075831;28;19911;-77
2021/04/13 00:59:51;;;;;;;;;;;2.40;99.90;;;;;;5075237;28;19911;-76
2021/04/13 01:02:24;;;;;;;;;;;2.50;99.90;;;;;;5075420;28;20322;-76
2021/04/13 01:04:57;;;;;;;;;;;2.60;99.90;;;;;;5092748;28;19904;-77
2021/04/13 01:07:34;;;;;;;;;;;2.60;99.90;;;;;;5075337;28;19904;-78
2021/04/13 01:10:10;;;;;;;;;;;2.60;99.90;;;;;;5094359;28;19904;-78
2021/04/13 01:12:41;;;;;;;;;;;2.60;99.90;;;;;;5086917;28;19908;-78
2021/04/13 01:15:08;;;;;;;;;;;2.60;99.90;;;;;;5107373;28;19912;-77
2021/04/13 01:17:35;;;;;;;;;;;2.60;99.90;;;;;;5108685;28;19904;-77
2021/04/13 01:20:19;;;;;;;;;;;2.60;99.90;;;;;;5098252;28;19904;-77
2021/04/13 01:25:21;;;;;;;;;;;2.50;99.90;;;;;;5093254;28;20371;-77
2021/04/13 01:27:51;;;;;;;;;;;2.50;99.90;;;;;;5075184;28;19919;-77
2021/04/13 01:30:17;;;;;;;;;;;2.60;99.90;;;;;;5093147;28;19992;-76
2021/04/13 01:32:42;;;;;;;;;;;2.70;99.90;;;;;;5076147;28;19908;-77
2021/04/13 01:35:11;;;;;;;;;;;2.70;99.90;;;;;;5078669;28;19931;-76
2021/04/13 01:38:14;;;;;;;;;;;2.60;99.90;;;;;;5096798;28;20432;-77
2021/04/13 01:41:02;;;;;;;;;;;2.60;99.90;;;;;;5078752;28;19904;-78
2021/04/13 01:43:30;;;;;;;;;;;2.60;99.90;;;;;;5097236;28;19915;-77
2021/04/13 01:45:56;;;;;;;;;;;2.50;99.90;;;;;;5096775;28;19911;-77
2021/04/13 01:48:24;;;;;;;;;;;2.40;99.90;;;;;;5078743;28;19915;-77
2021/04/13 01:50:59;;;;;;;;;;;2.40;99.90;;;;;;5096850;28;20017;-77
2021/04/13 01:53:26;;;;;;;;;;;2.50;99.90;;;;;;5078863;28;19990;-77
2021/04/13 01:56:03;;;;;;;;;;;2.50;99.90;;;;;;5096005;28;19912;-77
2021/04/13 01:58:34;;;;;;;;;;;2.70;99.90;;;;;;5096665;28;19904;-77
2021/04/13 02:01:02;;;;;;;;;;;2.60;99.90;;;;;;5096777;28;19908;-77
2021/04/13 02:03:46;;;;;;;;;;;2.70;99.90;;;;;;5078270;28;19903;-77
2021/04/13 02:06:20;;;;;;;;;;;2.90;99.90;;;;;;5096001;28;19990;-76
2021/04/13 02:08:49;;;;;;;;;;;2.90;99.90;;;;;;5096501;28;19911;-77
2021/04/13 02:11:22;;;;;;;;;;;2.90;99.90;;;;;;5078355;28;19904;-77
2021/04/13 02:13:47;;;;;;;;;;;2.80;99.90;;;;;;5095924;28;19908;-76
2021/04/13 02:16:22;;;;;;;;;;;2.60;99.90;;;;;;5078022;28;19904;-77
2021/04/13 02:18:49;;;;;;;;;;;2.50;99.90;;;;;;5077856;28;19904;-77
2021/04/13 02:21:19;;;;;;;;;;;2.50;99.90;;;;;;5096090;28;19994;-77
2021/04/13 02:23:50;;;;;;;;;;;2.50;99.90;;;;;;5096093;28;19911;-77
2021/04/13 02:26:16;;;;;;;;;;;2.50;99.90;;;;;;5095653;28;20416;-76
2021/04/13 02:28:42;;;;;;;;;;;2.60;99.90;;;;;;5095676;28;19904;-77
2021/04/13 02:31:09;;;;;;;;;;;2.50;99.90;;;;;;5077840;28;20378;-76
2021/04/13 02:33:39;;;;;;;;;;;2.60;99.90;;;;;;5077553;28;19911;-77
2021/04/13 02:36:11;;;;;;;;;;;2.70;99.90;;;;;;5095733;28;19998;-78
2021/04/13 02:38:37;;;;;;;;;;;2.90;99.90;;;;;;5077852;28;19907;-78
2021/04/13 02:41:15;;;;;;;;;;;2.90;99.90;;;;;;5077337;28;19925;-78
2021/04/13 02:43:44;;;;;;;;;;;3.00;99.90;;;;;;5076931;28;19904;-77
2021/04/13 02:46:15;;;;;;;;;;;3.10;99.90;;;;;;5076827;28;20333;-78
2021/04/13 02:48:44;;;;;;;;;;;3.10;99.90;;;;;;5077859;28;19998;-77
2021/04/13 02:51:11;;;;;;;;;;;3.20;99.90;;;;;;5095539;28;20299;-77
2021/04/13 02:53:39;;;;;;;;;;;3.20;99.90;;;;;;5095747;28;20011;-77
2021/04/13 02:56:07;;;;;;;;;;;3.20;99.90;;;;;;5076768;28;19927;-77
2021/04/13 02:58:38;;;;;;;;;;;3.20;99.90;;;;;;5077032;28;19912;-78
2021/04/13 03:01:04;;;;;;;;;;;3.30;99.90;;;;;;5095666;28;19912;-76
2021/04/13 03:03:40;;;;;;;;;;;3.30;99.90;;;;;;5077139;28;20010;-77
2021/04/13 03:06:05;;;;;;;;;;;3.30;99.90;;;;;;5076945;28;19947;-78
2021/04/13 03:08:35;;;;;;;;;;;3.30;99.90;;;;;;5095156;28;20371;-78
2021/04/13 03:11:07;;;;;;;;;;;3.30;99.90;;;;;;5076815;28;20360;-76
2021/04/13 03:13:34;;;;;;;;;;;3.40;99.90;;;;;;5076784;28;19904;-77
2021/04/13 03:15:59;;;;;;;;;;;3.40;99.90;;;;;;5094764;28;19931;-76
2021/04/13 03:18:39;;;;;;;;;;;3.50;99.90;;;;;;5076734;28;19904;-77
2021/04/13 03:21:06;;;;;;;;;;;3.50;99.90;;;;;;5095001;28;19904;-77
2021/04/13 03:23:32;;;;;;;;;;;3.40;99.90;;;;;;5095101;28;19995;-77
2021/04/13 03:26:00;;;;;;;;;;;3.40;99.90;;;;;;5094601;28;19973;-78
2021/04/13 03:28:28;;;;;;;;;;;3.40;99.90;;;;;;5094824;28;19911;-78
2021/04/13 03:30:53;;;;;;;;;;;3.40;99.90;;;;;;5076475;28;19942;-77
2021/04/13 03:33:27;;;;;;;;;;;3.40;99.90;;;;;;5076304;28;20477;-78
2021/04/13 03:35:56;;;;;;;;;;;3.50;99.90;;;;;;5094175;28;19914;-77
2021/04/13 03:38:23;;;;;;;;;;;3.40;99.90;;;;;;5076472;28;19943;-77
2021/04/13 03:40:50;;;;;;;;;;;3.40;99.90;;;;;;5076758;28;20002;-77
2021/04/13 03:43:16;;;;;;;;;;;3.40;99.90;;;;;;5094929;28;20370;-76
2021/04/13 03:45:43;;;;;;;;;;;3.20;99.90;;;;;;5076149;28;19904;-77
2021/04/13 03:48:12;;;;;;;;;;;3.20;99.90;;;;;;5076491;28;19987;-77
2021/04/13 03:50:39;;;;;;;;;;;3.30;99.90;;;;;;5094453;28;19955;-78
2021/04/13 03:53:06;;;;;;;;;;;3.40;99.90;;;;;;5094699;28;19904;-77
2021/04/13 03:55:32;;;;;;;;;;;3.30;99.90;;;;;;5074756;28;20038;-77
2021/04/13 03:57:58;;;;;;;;;;;3.30;99.90;;;;;;5076658;28;19965;-77
2021/04/13 04:00:28;;;;;;;;;;;3.30;99.90;;;;;;5094692;28;19915;-77
2021/04/13 04:02:54;;;;;;;;;;;3.20;99.90;;;;;;5094392;28;19904;-77
2021/04/13 04:05:23;;;;;;;;;;;3.10;99.90;;;;;;5075583;28;19911;-77
2021/04/13 04:07:55;;;;;;;;;;;3.00;99.90;;;;;;5075983;28;19991;-77
2021/04/13 04:10:27;;;;;;;;;;;3.10;99.90;;;;;;5076260;28;19911;-78
2021/04/13 04:13:06;;;;;;;;;;;3.10;99.90;;;;;;5095497;28;20315;-78
2021/04/13 04:15:42;;;;;;;;;;;3.00;99.90;;;;;;5105208;28;19930;-77
2021/04/13 04:18:20;;;;;;;;;;;3.10;99.90;;;;;;5090757;28;19904;-78
2021/04/13 04:20:46;;;;;;;;;;;3.00;99.90;;;;;;5109054;28;19926;-78
2021/04/13 04:23:22;;;;;;;;;;;3.00;99.90;;;;;;5096062;28;19904;-77
2021/04/13 04:25:50;;;;;;;;;;;3.00;99.90;;;;;;5093460;28;19904;-77
2021/04/13 04:28:23;;;;;;;;;;;2.90;99.90;;;;;;5093913;28;19912;-78
2021/04/13 04:30:48;;;;;;;;;;;2.90;99.90;;;;;;5075608;28;20006;-78
2021/04/13 04:33:34;;;;;;;;;;;2.80;99.90;;;;;;5093914;28;20016;-78
2021/04/13 04:35:59;;;;;;;;;;;2.70;99.90;;;;;;5093060;28;19960;-76
2021/04/13 04:38:26;;;;;;;;;;;2.70;99.90;;;;;;5075973;28;19986;-76
2021/04/13 04:40:57;;;;;;;;;;;2.80;99.90;;;;;;5093562;28;19908;-78
2021/04/13 04:43:58;;;;;;;;;;;2.60;99.90;;;;;;5075939;28;20378;-77
2021/04/13 04:46:41;;;;;;;;;;;2.70;99.90;;;;;;4994176;28;19990;-77
2021/04/13 04:49:11;;;;;;;;;;;2.70;99.90;;;;;;5066878;28;19912;-77
2021/04/13 04:51:37;;;;;;;;;;;2.60;99.90;;;;;;5092154;28;19908;-78
2021/04/13 04:54:03;;;;;;;;;;;2.50;99.90;;;;;;5110835;28;19918;-77
2021/04/13 04:56:29;;;;;;;;;;;2.50;99.90;;;;;;5094665;28;19952;-77
2021/04/13 04:58:54;;;;;;;;;;;2.40;99.90;;;;;;5113098;28;20407;-77
2021/04/13 05:01:20;;;;;;;;;;;2.50;99.90;;;;;;5112528;28;20360;-76
2021/04/13 05:03:46;;;;;;;;;;;2.50;99.90;;;;;;5112915;28;19915;-77
2021/04/13 05:06:11;;;;;;;;;;;2.50;99.90;;;;;;5112622;28;19908;-76
2021/04/13 05:08:37;;;;;;;;;;;2.50;99.90;;;;;;5098646;28;19995;-78
2021/04/13 05:11:03;;;;;;;;;;;2.60;99.90;;;;;;5116929;28;19908;-77
2021/04/13 05:13:29;;;;;;;;;;;2.60;99.90;;;;;;5098344;28;19908;-77
2021/04/13 05:15:55;;;;;;;;;;;2.60;99.90;;;;;;5097854;28;20012;-76
2021/04/13 05:18:20;;;;;;;;;;;2.60;99.90;;;;;;5098563;28;19904;-77
2021/04/13 05:20:46;;;;;;;;;;;2.70;99.90;;;;;;5116617;28;19943;-77
2021/04/13 05:23:12;;;;;;;;;;;2.70;99.90;;;;;;5098450;28;19904;-77
2021/04/13 05:25:37;;;;;;;;;;;2.80;99.90;;;;;;5097857;28;19904;-77
2021/04/13 05:28:03;;;;;;;;;;;2.70;99.90;;;;;;5098249;28;20259;-77
2021/04/13 05:30:29;;;;;;;;;;;2.90;99.90;;;;;;5098233;28;19908;-77
2021/04/13 05:32:54;;;;;;;;;;;2.90;99.90;;;;;;5098287;28;19915;-76
2021/04/13 05:35:21;;;;;;;;;;;3.00;99.90;;;;;;5097801;28;19907;-77
2021/04/13 05:37:47;;;;;;;;;;;3.10;99.90;;;;;;5098447;28;20006;-76
2021/04/13 05:40:15;;;;;;;;;;;3.20;99.90;;;;;;5116288;28;19943;-77
2021/04/13 05:42:40;;;;;;;;;;;3.40;99.90;;;;;;5116552;28;19949;-77
2021/04/13 05:45:08;;;;;;;;;;;3.20;99.90;;;;;;5116132;28;19912;-78
2021/04/13 05:47:35;;;;;;;;;;;3.30;99.90;;;;;;5098191;28;20349;-76
2021/04/13 05:50:01;;;;;;;;;;;3.20;99.90;;;;;;5098224;28;19907;-81
2021/04/13 05:52:26;;;;;;;;;;;3.30;99.90;;;;;;5094514;28;19938;-78
2021/04/13 05:54:52;;;;;;;;;;;3.80;99.90;;;;;;5103999;28;19911;-77
2021/04/13 05:57:19;;;;;;;;;;;5.50;99.90;;;;;;5114908;28;19960;-77
2021/04/13 05:59:44;;;;;;;;;;;6.90;99.90;;;;;;5114298;28;19995;-78
2021/04/13 06:02:12;;;;;;;;;;;8.00;99.90;;;;;;5114387;28;19947;-77
2021/04/13 06:04:37;;;;;;;9.77;5.18;;;9.60;99.90;;;;;;5113252;28;20257;-77
2021/04/13 06:07:03;;;;;;;10.00;5.47;;;10.10;99.90;;;;;;5112078;28;20312;-74
2021/04/13 06:09:28;;;;;;;;;;;11.20;99.90;;;;;;5112418;28;20020;-75
2021/04/13 06:11:56;;;;;;;7.60;4.80;;;11.70;98.30;;;;;;5113248;28;20264;-76
2021/04/13 06:14:23;;;;;;;8.65;5.15;;;11.70;96.30;;;;;;5103846;28;20553;-76
2021/04/13 06:16:50;;;;;;;7.85;5.47;;;12.10;94.70;;;;;;5099775;28;20479;-75
2021/04/13 06:19:15;;;;;;;9.73;6.13;;;11.90;95.40;;;;;;5088941;28;20231;-76
2021/04/13 06:21:42;;;;;;;;;;;12.10;93.90;;;;;;5112986;28;20511;-76
2021/04/13 06:24:08;;;;;;;7.53;4.97;;;12.50;90.50;;;;;;5087518;28;19908;-75
2021/04/13 06:26:34;;;;;;;;;;;11.10;94.40;;;;;;5074834;28;20399;-74
2021/04/13 06:28:59;;;;;;;12.63;7.07;;;11.80;93.70;;;;;;5074935;28;20580;-76
2021/04/13 06:31:25;;;;;;;;;;;12.10;93.10;;;;;;5075080;28;20055;-76
2021/04/13 06:33:50;;;;;;;10.52;5.97;;;12.60;92.00;;;;;;5092350;28;19923;-76
2021/04/13 06:36:19;;;;;;;12.35;6.75;;;13.10;88.40;;;;;;5081774;28;20081;-77
2021/04/13 06:38:45;;;;;;;10.50;6.10;;;13.90;84.30;;;;;;5094475;28;20080;-75
2021/04/13 06:41:50;;;;;;;15.30;7.17;;;14.40;80.20;;;;;;5094945;28;20012;-75
2021/04/13 06:44:35;;;;;;;13.45;7.28;;;14.00;75.30;;;;;;5112633;28;20307;-76
2021/04/13 06:47:09;;;;;;;11.40;7.10;;;14.70;76.30;;;;;;5094785;28;20106;-75
2021/04/13 06:50:17;;;;;;;10.52;6.93;;;15.40;71.60;;;;;;5113230;28;20497;-78
2021/04/13 06:53:15;;;;;;;10.27;6.78;;;13.80;76.40;;;;;;5094687;28;20482;-75
2021/04/13 06:56:14;;;;;;;10.65;6.53;;;14.10;74.90;;;;;;5112764;28;20012;-77
2021/04/13 06:58:52;;;;;;;10.30;7.43;;;15.60;69.20;;;;;;5098272;28;20026;-78
2021/04/13 07:01:28;;;;;;;11.77;7.50;;;15.00;67.50;;;;;;5115811;28;20024;-79
2021/04/13 07:04:06;;;;;;;11.18;7.50;;;15.70;68.70;;;;;;5101669;28;20023;-79
2021/04/13 07:06:46;;;;;;;10.85;7.07;;;17.40;62.30;;;;;;5102844;28;20028;-79
2021/04/13 07:09:43;;;;;;;10.00;6.65;;;16.90;63.90;;;;;;5116865;28;20102;-78
2021/04/13 07:12:08;;;;;;;;;;;15.10;65.00;;;;;;5098785;28;20019;-79
2021/04/13 07:14:49;;;;;;;8.80;6.00;;;15.70;67.60;;;;;;5083973;28;19908;-79
2021/04/13 07:17:20;;;;;;;10.73;6.88;;;16.40;64.20;;;;;;5099804;28;19908;-79
2021/04/13 07:19:56;;;;;;;9.93;6.50;;;14.80;66.10;;;;;;5079026;28;20032;-78
2021/04/13 07:22:38;;;;;;;10.43;6.47;;;15.10;67.90;;;;;;5095787;28;20196;-80
2021/04/13 07:25:16;;;;;;;10.57;6.53;;;16.70;64.00;;;;;;5077089;28;19940;-79
2021/04/13 07:28:02;;;;;;;10.45;6.72;;;17.30;60.70;;;;;;5095462;28;20078;-77
2021/04/13 07:30:35;;;;;;;11.07;7.38;;;18.40;58.90;;;;;;5091112;28;20034;-79
2021/04/13 07:33:04;;;;;;;9.35;6.40;;;18.30;58.60;;;;;;5096824;28;20043;-79
2021/04/13 07:35:38;;;;;;;8.98;6.50;;;18.50;58.80;;;;;;5096873;28;20069;-79
2021/04/13 07:38:11;;;;;;;8.43;5.80;;;18.70;56.90;;;;;;5098188;28;20081;-79
2021/04/13 07:40:42;;;;;;;9.30;6.25;;;17.70;55.50;;;;;;5117983;28;20039;-79
2021/04/13 07:43:15;;;;;;;10.40;6.80;;;18.10;56.70;;;;;;5098188;28;20015;-78
2021/04/13 07:46:07;;;;;;;9.57;6.05;;;16.60;57.30;;;;;;5095658;28;20027;-78
2021/04/13 07:48:55;;;;;;;9.40;5.80;;;17.10;58.60;;;;;;5096829;28;20024;-79
2021/04/13 07:51:40;;;;;;;8.68;6.03;;;16.80;56.60;;;;;;5094854;28;20041;-77
2021/04/13 07:54:34;;;;;;;7.80;5.25;;;16.30;59.20;;;;;;5096602;28;20056;-78
2021/04/13 07:57:18;;;;;;;9.40;5.57;;;17.40;56.40;;;;;;5099481;28;20027;-79
2021/04/13 08:00:10;;;;;;;8.20;6.00;;;17.90;55.10;;;;;;5116249;28;20505;-78
2021/04/13 08:02:36;;;;;;;8.85;5.75;;;19.10;52.60;;;;;;5093221;28;20027;-78
2021/04/13 08:05:03;;;;;;;9.38;6.22;;;18.10;55.30;;;;;;5094450;28;20031;-78
2021/04/13 08:07:38;;;;;;;10.40;6.00;;;16.20;56.00;;;;;;5077010;28;20028;-78
2021/04/13 08:10:09;;;;;;;8.25;5.97;;;17.70;56.50;;;;;;5076092;28;20031;-79
2021/04/13 08:12:52;;;;;;;8.40;6.00;;;19.40;53.50;;;;;;5081744;28;20047;-78
2021/04/13 08:15:19;;;;;;;10.25;5.53;;;19.00;53.40;;;;;;5114902;28;20114;-78
2021/04/13 08:18:05;;;;;;;;;;;17.60;53.50;;;;;;5097707;28;20079;-79
2021/04/13 08:20:34;;;;;;;8.30;6.33;;;18.20;53.70;;;;;;5091848;28;20029;-78
2021/04/13 08:23:03;;;;;;;10.07;6.25;;;16.80;55.20;;;;;;5085458;28;20024;-78
2021/04/13 08:25:30;;;;;;;9.27;6.18;;;18.20;54.50;;;;;;5086391;28;20030;-80
2021/04/13 08:28:09;;;;;;;;;;;20.00;52.50;;;;;;5079264;28;20055;-80
2021/04/13 08:30:57;;;;;;;7.70;5.72;;;20.20;51.10;;;;;;5078730;28;19957;-78
2021/04/13 08:33:41;;;;;;;8.48;6.07;;;19.90;50.40;;;;;;5077881;28;20035;-78
2021/04/13 08:36:13;;;;;;;10.77;5.78;;;20.80;49.80;;;;;;5077923;28;20023;-78
2021/04/13 08:39:08;;;;;;;9.38;6.47;;;19.90;51.10;;;;;;5087992;28;20024;-79
2021/04/13 08:41:45;;;;;;;8.70;5.90;;;19.60;51.10;;;;;;5098323;28;20023;-78
2021/04/13 08:44:47;;;;;;;7.30;5.20;;;17.80;53.30;;;;;;5095955;28;20337;-78
2021/04/13 08:47:26;;;;;;;8.90;6.13;;;15.90;54.70;;;;;;5077963;28;20142;-78
2021/04/13 08:49:56;;;;;;;;;;;16.90;54.10;;;;;;5090886;28;20028;-77
2021/04/13 08:52:33;;;;;;;7.20;5.78;;;15.60;55.90;;;;;;5097673;28;19911;-79
2021/04/13 08:55:12;;;;;;;6.80;5.00;;;16.80;55.50;;;;;;5092364;28;20081;-77
2021/04/13 08:57:45;;;;;;;7.85;5.35;;;18.10;53.90;;;;;;5112450;28;20598;-77
2021/04/13 09:00:39;;;;;;;7.10;5.57;;;20.00;49.40;;;;;;5093487;28;20471;-77
2021/04/13 09:03:10;;;;;;;8.52;5.45;;;17.00;50.80;;;;;;5110824;28;20378;-77
2021/04/13 09:05:39;;;;;;;8.55;5.55;;;17.30;53.40;;;;;;5091846;28;20058;-77
2021/04/13 09:08:35;;;;;;;9.00;5.10;;;17.90;51.20;;;;;;5088238;28;19914;-77
2021/04/13 09:11:17;;;;;;;7.15;5.15;;;15.80;53.40;;;;;;5071795;28;20027;-78
2021/04/13 09:14:07;;;;;;;7.68;5.30;;;13.20;57.90;;;;;;5072375;28;20036;-76
2021/04/13 09:16:35;;;;;;;;;;;13.00;58.50;;;;;;5061489;28;20042;-76
2021/04/13 09:19:02;;;;;;;;;;;15.00;58.60;;;;;;5073054;28;19908;-77
2021/04/13 09:21:44;;;;;;;7.05;4.70;;;17.00;55.50;;;;;;5072371;28;19912;-77
2021/04/13 09:24:12;;;;;;;;;;;14.70;54.70;;;;;;5079553;28;20212;-78
2021/04/13 09:26:41;;;;;;;;;;;15.40;54.80;;;;;;5085316;28;19908;-77
2021/04/13 09:29:29;;;;;;;5.43;4.07;;;16.20;51.40;;;;;;5092655;28;19916;-77
2021/04/13 09:31:55;;;;;;;6.40;4.40;;;16.90;53.90;;;;;;5092572;28;20051;-79
2021/04/13 09:34:21;;;;;;;7.38;4.60;;;18.00;50.10;;;;;;5091700;28;20105;-78
2021/04/13 09:36:58;;;;;;;6.97;4.18;;;16.80;50.90;;;;;;5092924;28;20462;-78
2021/04/13 09:39:57;;;;;;;6.65;4.53;;;17.10;53.60;;;;;;5112102;28;20107;-78
2021/04/13 09:42:52;;;;;;;4.30;3.90;;;18.50;48.70;;;;;;5107107;28;20247;-78
2021/04/13 09:45:35;;;;;;;6.85;3.60;;;18.80;46.10;;;;;;5088309;28;20035;-79
2021/04/13 09:48:20;;;;;;;6.13;4.10;;;;;;;;;;5093763;28;20533;-78
2021/04/13 09:51:03;;;;;;;4.90;3.75;;;18.60;49.00;;;;;;5112101;28;20397;-79
2021/04/13 09:53:48;;;;;;;4.75;3.20;;;;;;;;;;5088048;28;20433;-79
2021/04/13 09:56:25;;;;;;;4.32;3.17;;;20.00;45.30;;;;;;5103237;28;20032;-79
2021/04/13 09:58:58;;;;;;;3.70;2.85;;;20.80;42.50;;;;;;5104131;28;20013;-78
2021/04/13 10:01:42;;;;;;;3.75;3.05;;;20.90;42.60;;;;;;5084713;28;20115;-78
2021/04/13 10:04:35;;;;;;;8.88;3.90;;;19.10;42.70;;;;;;5103663;28;20031;-80
2021/04/13 10:07:23;;;;;;;3.85;3.45;;;20.60;44.70;;;;;;5087352;28;20019;-79
2021/04/13 10:09:50;;;;;;;3.60;3.08;;;20.40;44.20;;;;;;5086111;28;20027;-79
2021/04/13 10:12:27;;;;;;;3.13;2.83;;;20.80;40.50;;;;;;5086591;28;20038;-79
2021/04/13 10:15:05;;;;;;;7.27;3.60;;;21.30;42.10;;;;;;5084912;28;20024;-75
2021/04/13 10:17:44;;;;;;;4.85;3.42;;;23.00;42.70;;;;;;5085638;28;20020;-78
2021/04/13 10:20:36;;;;;;;4.88;3.40;;;20.30;40.90;;;;;;5102492;28;20026;-77
2021/04/13 10:23:32;;;;;;;5.82;3.42;;;19.00;41.10;;;;;;5085750;28;20019;-78
2021/04/13 10:26:31;;;;;;;2.88;2.58;;;20.00;41.50;;;;;;5085591;28;20024;-80
2021/04/13 10:29:12;;;;;;;4.25;3.30;;;21.40;42.60;;;;;;5084888;28;20123;-77
2021/04/13 10:32:15;;;;;;;5.45;3.75;;;21.10;38.90;;;;;;5083053;28;20027;-77
2021/04/13 10:35:02;;;;;;;6.32;4.47;;;20.90;43.80;;;;;;5094860;28;20036;-78
2021/04/13 10:37:34;;;;;;;6.60;4.00;;;21.10;45.40;;;;;;5075037;28;20085;-78
2021/04/13 10:40:30;;;;;;;7.00;4.85;;;20.90;42.20;;;;;;5075044;28;20404;-77
2021/04/13 10:42:58;;;;;;;;;;;19.50;43.00;;;;;;5075295;28;20081;-76
2021/04/13 10:45:53;;;;;;;;;;;18.00;45.00;;;;;;5080346;28;19912;-77
2021/04/13 10:48:46;;;;;;;6.72;4.60;;;19.20;45.10;;;;;;5064243;28;19999;-78
2021/04/13 10:51:40;;;;;;;6.13;3.90;;;19.60;44.20;;;;;;5084738;28;20016;-76
2021/04/13 10:54:41;;;;;;;4.90;3.33;;;19.50;40.60;;;;;;5101610;28;20023;-78
2021/04/13 10:57:26;;;;;;;;;;;18.50;46.30;;;;;;5085039;28;20047;-79
2021/04/13 11:00:00;;;;;;;6.82;4.25;;;18.00;44.80;;;;;;5084272;28;20048;-79
2021/04/13 11:03:03;;;;;;;5.65;3.80;;;17.40;45.80;;;;;;5085217;28;20024;-79
2021/04/13 11:06:06;;;;;;;6.38;4.57;;;19.00;42.60;;;;;;5099088;28;20062;-78
2021/04/13 11:08:50;;;;;;;;;;;19.20;42.50;;;;;;5093107;28;20099;-77
2021/04/13 11:11:34;;;;;;;;;;;18.50;42.70;;;;;;5075658;28;20244;-78
2021/04/13 11:14:18;;;;;;;;;;;17.60;43.00;;;;;;5074237;28;19904;-77
2021/04/13 11:17:06;;;;;;;;;;;15.10;46.00;;;;;;5074411;28;19915;-79
2021/04/13 11:19:38;;;;;;;;;;;16.50;46.60;;;;;;5074631;28;19908;-80
2021/04/13 11:22:36;;;;;;;4.65;3.22;;;17.80;43.30;;;;;;5074432;28;19935;-79
2021/04/13 11:25:28;;;;;;;6.45;3.67;;;19.40;40.20;;;;;;5073422;28;20372;-78
2021/04/13 11:28:32;;;;;;;4.75;3.45;;;18.80;41.30;;;;;;5074193;28;20387;-79
2021/04/13 11:31:11;;;;;;;3.35;2.95;;;18.40;40.00;;;;;;5096262;28;20020;-80
2021/04/13 11:34:13;;;;;;;5.07;3.13;;;19.30;40.80;;;;;;5074275;28;20036;-77
2021/04/13 11:37:04;;;;;;;2.20;1.92;;;20.50;41.20;;;;;;5090834;28;20024;-77
2021/04/13 11:39:58;;;;;;;3.00;2.10;;;20.90;40.10;;;;;;5097876;28;20065;-78
2021/04/13 11:42:30;;;;;;;;;;;20.90;37.30;;;;;;5094118;28;20064;-78
2021/04/13 11:45:01;;;;;;;;;;;17.00;38.70;;;;;;5112274;28;20389;-77
2021/04/13 11:47:42;;;;;;;2.97;2.28;;;15.00;43.90;;;;;;5112592;28;20312;-76
2021/04/13 11:50:21;;;;;;;;;;;15.20;42.90;;;;;;5094315;28;20035;-78
2021/04/13 11:53:01;;;;;;;11.40;2.83;;;14.20;45.30;;;;;;5089129;28;19970;-76
2021/04/13 11:55:30;;;;;;;2.63;2.17;;;13.60;47.30;;;;;;5086977;28;20027;-76
2021/04/13 11:58:07;;;;;;;2.50;2.05;;;16.00;49.40;;;;;;5092884;28;20012;-76
2021/04/13 12:00:33;;;;;;;2.42;1.92;;;17.50;44.30;;;;;;5099018;28;20023;-78
2021/04/13 12:03:04;;;;;;;2.50;1.70;;;16.50;43.40;;;;;;5095027;28;20028;-77
2021/04/13 12:05:32;;;;;;;;;;;14.70;45.60;;;;;;5114593;28;20209;-78
2021/04/13 12:07:58;;;;;;;;;;;12.90;48.10;;;;;;5116925;28;19911;-77
2021/04/13 12:10:30;;;;;;;;;;;12.60;48.70;;;;;;5097037;28;20003;-77
2021/04/13 12:12:56;;;;;;;;;;;13.60;47.10;;;;;;5106539;28;19949;-78
2021/04/13 12:15:22;;;;;;;;;;;14.00;48.30;;;;;;5094131;28;19981;-78
2021/04/13 12:17:51;;;;;;;;;;;14.20;48.80;;;;;;5076135;28;20359;-76
2021/04/13 12:20:34;;;;;;;;;;;13.40;49.40;;;;;;5076021;28;19954;-77
2021/04/13 12:23:05;;;;;;;;;;;11.70;49.50;;;;;;5093821;28;20432;-78
2021/04/13 12:25:49;;;;;;;;;;;11.00;51.20;;;;;;5075765;28;20382;-77
2021/04/13 12:28:18;;;;;;;;;;;10.80;51.90;;;;;;5075805;28;19990;-77
2021/04/13 12:30:43;;;;;;;;;;;10.30;52.80;;;;;;5093363;28;19904;-77
2021/04/13 12:33:09;;;;;;;;;;;10.30;51.90;;;;;;5094041;28;19919;-78
2021/04/13 12:35:46;;;;;;;;;;;10.00;51.60;;;;;;5093120;28;20359;-77
2021/04/13 12:38:31;;;;;;;;;;;10.20;52.30;;;;;;5093321;28;19920;-77
2021/04/13 12:41:17;;;;;;;;;;;10.10;50.90;;;;;;5075976;28;19927;-77
2021/04/13 12:43:43;;;;;;;;;;;10.40;54.50;;;;;;5093961;28;19911;-77
2021/04/13 12:46:18;;;;;;;;;;;10.70;53.80;;;;;;5074617;28;19937;-77
2021/04/13 12:48:45;;;;;;;;;;;11.00;52.70;;;;;;5077826;28;19904;-77
2021/04/13 12:51:13;;;;;;;;;;;11.20;51.50;;;;;;5095739;28;19903;-78
2021/04/13 12:53:39;;;;;;;;;;;11.40;50.50;;;;;;5110246;28;19908;-77
2021/04/13 12:56:05;;;;;;;;;;;12.10;50.40;;;;;;5093594;28;19991;-78
2021/04/13 12:58:33;;;;;;;;;;;12.40;49.90;;;;;;5075102;28;19904;-77
2021/04/13 13:00:58;;;;;;;;;;;11.60;49.10;;;;;;5102119;28;19911;-78
2021/04/13 13:03:44;;;;;;;;;;;10.90;52.00;;;;;;5097677;28;19904;-79
2021/04/13 13:06:14;;;;;;;;;;;10.40;52.20;;;;;;5115109;28;20352;-78
2021/04/13 13:08:39;;;;;;;;;;;10.20;53.20;;;;;;5096981;28;19904;-77
2021/04/13 13:11:10;;;;;;;;;;;10.10;53.20;;;;;;5115050;28;19908;-78
2021/04/13 13:13:37;;;;;;;;;;;10.60;53.80;;;;;;5113945;28;19938;-78
2021/04/13 13:16:13;;;;;;;;;;;11.60;52.50;;;;;;5095087;28;19919;-77
2021/04/13 13:18:45;;;;;;;;;;;11.60;49.00;;;;;;5098497;28;19935;-77
2021/04/13 13:21:11;;;;;;;;;;;11.90;52.00;;;;;;5093512;28;20364;-77
2021/04/13 13:23:39;;;;;;;;;;;11.80;52.00;;;;;;5093156;28;20406;-78
2021/04/13 13:26:12;;;;;;;;;;;11.50;52.30;;;;;;5074564;28;19905;-77
2021/04/13 13:28:44;;;;;;;;;;;11.40;55.20;;;;;;5077974;28;19915;-78
2021/04/13 13:31:17;;;;;;;;;;;11.00;54.10;;;;;;5079098;28;19911;-79
2021/04/13 13:33:44;;;;;;;;;;;11.00;56.00;;;;;;5097220;28;19912;-77
2021/04/13 13:36:10;;;;;;;;;;;11.50;53.80;;;;;;5078182;28;19914;-77
2021/04/13 13:38:37;;;;;;;;;;;12.00;52.40;;;;;;5077688;28;20290;-78
2021/04/13 13:41:03;;;;;;;;;;;12.40;53.60;;;;;;5078401;28;20360;-77
2021/04/13 13:43:31;;;;;;;;;;;12.70;49.20;;;;;;5096158;28;19904;-78
2021/04/13 13:46:11;;;;;;;;;;;12.70;48.50;;;;;;5095925;28;20100;-78
2021/04/13 13:48:37;;;;;;;;;;;12.80;53.40;;;;;;5078289;28;19907;-79
2021/04/13 13:51:10;;;;;;;;;;;13.00;49.10;;;;;;5079143;28;19904;-79
2021/04/13 13:53:45;;;;;;;;;;;12.90;53.30;;;;;;5097260;28;20322;-76
2021/04/13 13:56:23;;;;;;;;;;;12.60;50.60;;;;;;5089019;28;19919;-77
2021/04/13 13:58:49;;;;;;;;;;;11.50;51.00;;;;;;5086998;28;20350;-77
2021/04/13 14:01:23;;;;;;;;;;;10.50;53.90;;;;;;5092450;28;19946;-76
2021/04/13 14:03:50;;;;;;;;;;;10.20;53.00;;;;;;5098894;28;19911;-78
2021/04/13 14:06:15;;;;;;;;;;;9.80;53.70;;;;;;5099091;28;19946;-77
2021/04/13 14:08:41;;;;;;;;;;;10.10;52.60;;;;;;5116374;28;20274;-76
2021/04/13 14:11:20;;;;;;;;;;;10.80;54.20;;;;;;5115475;28;20402;-76
2021/04/13 14:14:04;;;;;;;;;;;11.40;51.40;;;;;;5096999;28;19946;-76
2021/04/13 14:16:46;;;;;;;;;;;11.60;51.40;;;;;;5115964;28;19915;-76
2021/04/13 14:19:20;;;;;;;;;;;11.30;53.70;;;;;;5098446;28;19907;-78
2021/04/13 14:21:47;;;;;;;;;;;10.30;55.00;;;;;;5098263;28;19956;-79
2021/04/13 14:24:32;;;;;;;;;;;9.90;58.20;;;;;;5115175;28;20382;-78
2021/04/13 14:27:05;;;;;;;;;;;9.80;58.70;;;;;;5098792;28;19935;-78
2021/04/13 14:29:33;;;;;;;;;;;9.80;57.20;;;;;;5096991;28;19994;-78